Time;durP1;ratioP1;P1;durP2;ratioP2;P2;SDS_P1;SDS_P2;PMS_P1;PMS_P2;Temp;Humidity;BMP_temperature;BMP_pressure;BME280_temperature;BME280_humidity;BME280_pressure;Samples;Min_cycle;Max_cycle;Signal;HPM_P1;HPM_P2
2021/04/15 00:00:10;;;;;;;1999.90;999.90;;;;;;;5.38;55.91;102292.81;15682379;28;20520;-60
2021/04/15 00:07:42;;;;;;;1999.90;999.90;;;;;;;5.27;56.05;102285.47;15680404;28;20098;-60
2021/04/15 00:15:15;;;;;;;1999.90;999.90;;;;;;;5.19;55.94;102275.69;15680703;28;20128;-61
2021/04/15 00:22:48;;;;;;;1999.90;999.90;;;;;;;5.16;56.33;102287.28;15680587;28;20058;-62
2021/04/15 00:30:21;;;;;;;1999.90;999.90;;;;;;;5.15;56.98;102279.25;15679236;28;20045;-61
2021/04/15 00:37:53;;;;;;;1999.90;999.90;;;;;;;5.09;56.05;102283.88;15678602;28;20053;-59
2021/04/15 00:45:28;;;;;;;1999.90;999.90;;;;;;;5.07;55.75;102274.16;15680073;28;20060;-59
2021/04/15 00:53:05;;;;;;;1999.90;999.90;;;;;;;4.99;57.01;102280.97;15682863;28;20091;-60
2021/04/15 01:00:38;;;;;;;1999.90;999.90;;;;;;;4.91;57.79;102274.00;15678860;28;20446;-61
2021/04/15 01:08:11;;;;;;;1999.90;999.90;;;;;;;4.98;57.73;102275.72;15677154;28;20049;-60
2021/04/15 01:15:58;;;;;;;1999.90;999.90;;;;;;;4.97;58.36;102266.59;15677825;28;20041;-62
2021/04/15 01:23:37;;;;;;;1999.90;999.90;;;;;;;4.89;58.47;102269.78;15676478;28;20037;-62
2021/04/15 01:31:14;;;;;;;1999.90;999.90;;;;;;;4.81;59.15;102265.56;15676874;28;20037;-60
2021/04/15 01:38:50;;;;;;;1999.90;999.90;;;;;;;4.80;58.95;102265.84;15677477;28;20045;-59
2021/04/15 01:46:29;;;;;;;1999.90;999.90;;;;;;;4.64;59.76;102257.31;15675792;28;20501;-58
2021/04/15 01:54:05;;;;;;;1999.90;999.90;;;;;;;4.57;59.71;102258.59;15676141;28;20041;-59
2021/04/15 02:01:43;;;;;;;1999.90;999.90;;;;;;;4.67;59.36;102255.13;15676964;28;20497;-60
2021/04/15 02:09:17;;;;;;;1999.90;999.90;;;;;;;4.57;60.34;102253.88;15689371;28;20405;-60
2021/04/15 02:16:50;;;;;;;;;;;;;;;4.61;59.37;102260.59;15688704;28;20044;-59
2021/04/15 02:24:38;;;;;;;1999.90;999.90;;;;;;;4.62;60.29;102256.75;15686884;28;19921;-61
2021/04/15 02:32:16;;;;;;;1999.90;999.90;;;;;;;4.51;60.62;102252.16;15686031;28;20048;-60
2021/04/15 02:39:54;;;;;;;1999.90;999.90;;;;;;;4.41;60.61;102249.25;15687667;28;20052;-61
2021/04/15 02:47:34;;;;;;;1999.90;999.90;;;;;;;4.32;60.69;102253.53;15687007;28;20108;-62
2021/04/15 02:55:09;;;;;;;1999.90;999.90;;;;;;;4.25;61.35;102244.59;15684780;28;20045;-62
2021/04/15 03:02:45;;;;;;;1999.90;999.90;;;;;;;4.24;60.89;102245.69;15666821;28;20041;-61
2021/04/15 03:10:23;;;;;;;1999.90;999.90;;;;;;;4.23;61.35;102247.59;15685171;28;20041;-62
2021/04/15 03:17:59;;;;;;;1999.90;999.90;;;;;;;4.23;61.41;102252.28;15684343;28;20037;-60
2021/04/15 03:25:31;;;;;;;1999.90;999.90;;;;;;;4.16;61.62;102252.47;15685034;28;20045;-61
2021/04/15 03:33:10;;;;;;;1999.90;999.90;;;;;;;4.19;61.99;102253.91;15666008;28;20049;-60
2021/04/15 03:40:46;;;;;;;1999.90;999.90;;;;;;;4.00;62.06;102256.91;15682132;28;20493;-58
2021/04/15 03:48:24;;;;;;;1999.90;999.90;;;;;;;4.11;62.17;102255.16;15682764;28;20068;-60
2021/04/15 03:55:59;;;;;;;1999.90;999.90;;;;;;;4.11;62.28;102254.31;15681783;28;20072;-60
2021/04/15 04:03:34;;;;;;;1999.90;999.90;;;;;;;4.12;62.04;102253.22;15681246;28;20386;-62
2021/04/15 04:11:08;;;;;;;1999.90;999.90;;;;;;;4.28;62.02;102255.16;15665657;28;20048;-61
2021/04/15 04:18:47;;;;;;;1999.90;999.90;;;;;;;4.35;61.84;102264.06;15679617;28;20045;-62
2021/04/15 04:26:23;;;;;;;1999.90;999.90;;;;;;;4.34;62.31;102271.53;15681855;28;20045;-62
2021/04/15 04:33:57;;;;;;;1999.90;999.90;;;;;;;4.40;62.27;102266.09;15678572;28;20056;-61
2021/04/15 04:41:35;;;;;;;1999.90;999.90;;;;;;;4.31;62.53;102279.50;15661685;28;20460;-61
2021/04/15 04:49:14;;;;;;;1999.90;999.90;;;;;;;4.52;62.32;102292.53;15683526;28;20405;-62
2021/04/15 04:56:50;;;;;;;1999.90;999.90;;;;;;;4.60;61.64;102294.88;15677812;28;20067;-60
2021/04/15 05:04:30;;;;;;;1999.90;999.90;;;;;;;4.72;61.88;102292.00;15677546;28;20045;-60
2021/04/15 05:12:07;;;;;;;1999.90;999.90;;;;;;;4.91;61.55;102292.53;15676295;28;20045;-61
2021/04/15 05:19:39;;;;;;;1999.90;999.90;;;;;;;4.92;61.63;102302.50;15659585;28;20106;-60
2021/04/15 05:27:13;;;;;;;1999.90;999.90;;;;;;;5.12;60.65;102299.16;15675998;28;20052;-61
2021/04/15 05:34:48;;;;;;;1999.90;999.90;;;;;;;5.29;61.55;102310.13;15675517;28;20045;-62
2021/04/15 05:42:26;;;;;;;1999.90;999.90;;;;;;;5.58;60.52;102299.66;15686248;28;20045;-62
2021/04/15 05:50:06;;;;;;;1999.90;999.90;;;;;;;5.68;60.44;102297.00;15690388;28;20128;-63
2021/04/15 05:57:41;;;;;;;1999.90;999.90;;;;;;;5.87;60.47;102301.06;15687560;28;20037;-60
2021/04/15 06:05:19;;;;;;;1999.90;999.90;;;;;;;6.08;59.52;102302.94;15687808;28;20041;-60
2021/04/15 06:12:58;;;;;;;1999.90;999.90;;;;;;;6.20;59.52;102304.69;15686824;28;20462;-61
2021/04/15 06:20:35;;;;;;;1999.90;999.90;;;;;;;6.48;58.90;102311.84;15687988;28;20470;-61
2021/04/15 06:28:10;;;;;;;1999.90;999.90;;;;;;;6.68;58.97;102320.31;15687849;28;20060;-62
2021/04/15 06:35:45;;;;;;;1999.90;999.90;;;;;;;6.87;57.56;102318.72;15685607;28;20041;-63
2021/04/15 06:43:35;;;;;;;1999.90;999.90;;;;;;;7.27;56.74;102314.47;15687442;28;20041;-61
2021/04/15 06:51:40;;;;;;;1999.90;999.90;;;;;;;6.77;58.45;102315.88;15684637;28;20148;-62
2021/04/15 06:59:35;;;;;;;1999.90;999.90;;;;;;;7.37;56.17;102319.22;15674877;28;20056;-61
2021/04/15 07:07:12;;;;;;;1999.90;999.90;;;;;;;7.60;56.38;102318.72;15683613;28;20044;-63
2021/04/15 07:15:01;;;;;;;1999.90;999.90;;;;;;;7.95;54.62;102312.41;15683373;28;20045;-61
2021/04/15 07:23:00;;;;;;;1999.90;999.90;;;;;;;8.22;53.10;102314.91;15684062;28;20052;-60
2021/04/15 07:31:03;;;;;;;1999.90;999.90;;;;;;;8.82;51.48;102313.19;15683878;28;20148;-57
2021/04/15 07:38:56;;;;;;;1999.90;999.90;;;;;;;9.16;50.36;102318.91;15681701;28;20099;-61
2021/04/15 07:46:39;;;;;;;1999.90;999.90;;;;;;;8.91;50.33;102319.84;15680836;28;20512;-61
2021/04/15 07:54:35;;;;;;;1999.90;999.90;;;;;;;9.37;49.72;102321.59;15680525;28;20048;-62
2021/04/15 08:02:30;;;;;;;1999.90;999.90;;;;;;;9.87;46.85;102319.63;15679799;28;20124;-62
2021/04/15 08:10:23;;;;;;;1999.90;999.90;;;;;;;9.96;44.02;102320.69;15679959;28;20517;-61
2021/04/15 08:18:06;;;;;;;1999.90;999.90;;;;;;;10.98;43.68;102321.44;15678116;28;20045;-60
2021/04/15 08:25:45;;;;;;;;;;;;;;;10.71;42.98;102323.97;15672512;28;20048;-64
2021/04/15 08:33:27;;;;;;;1999.90;999.90;;;;;;;11.12;41.05;102318.75;15668128;28;19935;-64
2021/04/15 08:41:11;;;;;;;1999.90;999.90;;;;;;;11.41;40.58;102327.03;15675463;28;20068;-63
2021/04/15 08:48:52;;;;;;;1999.90;999.90;;;;;;;11.07;37.78;102320.78;15678682;28;20452;-61
2021/04/15 08:56:29;;;;;;;1999.90;999.90;;;;;;;11.75;39.12;102314.81;15675104;28;20044;-62
2021/04/15 09:04:10;;;;;;;1999.90;999.90;;;;;;;11.16;37.32;102313.41;15660598;28;20044;-64
2021/04/15 09:12:02;;;;;;;1999.90;999.90;;;;;;;9.74;39.08;102315.53;15676725;28;20065;-60
2021/04/15 09:19:59;;;;;;;1999.90;999.90;;;;;;;10.62;38.19;102311.75;15677797;28;20053;-61
2021/04/15 09:27:57;;;;;;;1999.90;999.90;;;;;;;11.14;37.34;102310.06;15676171;28;20041;-59
2021/04/15 09:35:57;;;;;;;1999.90;999.90;;;;;;;11.03;36.88;102306.56;15675592;28;20204;-59
2021/04/15 09:44:16;;;;;;;1999.90;999.90;;;;;;;12.03;36.11;102305.47;15657764;28;20044;-62
2021/04/15 09:52:17;;;;;;;1999.90;999.90;;;;;;;13.26;33.51;102296.47;15598730;28;20041;-62
2021/04/15 10:00:11;;;;;;;1999.90;999.90;;;;;;;12.80;32.68;102290.91;15677250;28;20049;-63
2021/04/15 10:07:50;;;;;;;1999.90;999.90;;;;;;;12.85;31.37;102281.59;15673365;28;20051;-65
2021/04/15 10:15:37;;;;;;;1999.90;999.90;;;;;;;12.45;31.78;102280.41;15675135;28;20271;-65
2021/04/15 10:23:24;;;;;;;1999.90;999.90;;;;;;;12.11;33.01;102289.97;15677044;28;20099;-63
2021/04/15 10:31:26;;;;;;;1999.90;999.90;;;;;;;13.95;29.84;102279.44;15686433;28;20057;-61
2021/04/15 10:39:16;;;;;;;1999.90;999.90;;;;;;;14.44;29.81;102281.31;15673844;28;20379;-62
2021/04/15 10:47:02;;;;;;;1999.90;999.90;;;;;;;12.80;31.33;102278.88;15685047;28;20045;-60
2021/04/15 10:54:37;;;;;;;1999.90;999.90;;;;;;;12.07;34.65;102291.69;15685052;28;20048;-62
2021/04/15 11:02:19;;;;;;;1999.90;999.90;;;;;;;11.39;35.13;102290.19;15684254;28;20118;-62
2021/04/15 11:09:52;;;;;;;1999.90;999.90;;;;;;;11.48;35.44;102282.78;15685181;28;20480;-61
2021/04/15 11:17:31;;;;;;;1999.90;999.90;;;;;;;11.18;36.77;102277.63;15666976;28;20045;-63
2021/04/15 11:25:13;;;;;;;1999.90;999.90;;;;;;;11.40;37.08;102282.63;15682784;28;20127;-66
2021/04/15 11:32:45;;;;;;;1999.90;999.90;;;;;;;11.21;36.91;102272.25;15664743;28;20045;-63
2021/04/15 11:40:32;;;;;;;1999.90;999.90;;;;;;;10.94;36.86;102274.81;15683449;28;20543;-63
2021/04/15 11:48:20;;;;;;;1999.90;999.90;;;;;;;10.69;37.54;102281.53;15681293;28;20056;-57
2021/04/15 11:56:11;;;;;;;1999.90;999.90;;;;;;;11.13;38.36;102263.69;15681942;28;20044;-64
2021/04/15 12:03:55;;;;;;;1999.90;999.90;;;;;;;10.19;40.06;102285.63;15664447;28;20060;-61
2021/04/15 12:11:32;;;;;;;1999.90;999.90;;;;;;;9.90;42.38;102274.44;15680930;28;20048;-61
2021/04/15 12:19:13;;;;;;;1999.90;999.90;;;;;;;10.06;42.49;102284.34;15681091;28;20048;-62
2021/04/15 12:26:49;;;;;;;1999.90;999.90;;;;;;;10.13;43.55;102282.91;15682636;28;20052;-64
2021/04/15 12:34:33;;;;;;;1999.90;999.90;;;;;;;10.92;41.88;102265.91;15680367;28;20037;-61
2021/04/15 12:42:06;;;;;;;1999.90;999.90;;;;;;;10.75;40.93;102260.81;15679054;28;20044;-60
2021/04/15 12:49:38;;;;;;;1999.90;999.90;;;;;;;11.15;40.18;102245.53;15679001;28;20059;-62
2021/04/15 12:57:12;;;;;;;1999.90;999.90;;;;;;;10.07;41.23;102241.38;15776315;22;20067;-71
2021/04/15 13:04:47;;;;;;;1999.90;999.90;;;;;;;9.82;42.31;102236.88;15803568;28;20066;-71
2021/04/15 13:12:34;;;;;;;1999.90;999.90;;;;;;;10.79;40.33;102228.38;15769755;22;20075;-61
2021/04/15 13:20:32;;;;;;;1999.90;999.90;;;;;;;10.36;40.26;102213.53;15722947;28;20393;-62
2021/04/15 13:28:05;;;;;;;1999.90;999.90;;;;;;;10.72;39.65;102215.91;15757201;22;20058;-56
2021/04/15 13:35:42;;;;;;;1999.90;999.90;;;;;;;11.29;38.60;102195.31;15732494;28;20064;-57
2021/04/15 13:43:42;;;;;;;1999.90;999.90;;;;;;;11.21;37.86;102190.38;15731391;28;20044;-59
2021/04/15 13:51:21;;;;;;;1999.90;999.90;;;;;;;10.25;38.32;102186.84;15728404;28;20072;-61
2021/04/15 13:58:53;;;;;;;1999.90;999.90;;;;;;;10.59;38.26;102176.41;15727917;28;20439;-60
2021/04/15 14:06:27;;;;;;;1999.90;999.90;;;;;;;10.51;39.19;102165.06;15741605;28;20146;-57
2021/04/15 14:14:01;;;;;;;1999.90;999.90;;;;;;;10.51;39.91;102165.06;15743351;28;20147;-58
2021/04/15 14:21:38;;;;;;;1999.90;999.90;;;;;;;10.49;38.87;102162.56;15739774;28;20462;-61
2021/04/15 14:29:16;;;;;;;1999.90;999.90;;;;;;;10.22;38.31;102152.03;15739277;28;20059;-57
2021/04/15 14:36:55;;;;;;;1999.90;999.90;;;;;;;10.92;38.90;102169.00;15740606;28;20143;-56
2021/04/15 14:44:31;;;;;;;1999.90;999.90;;;;;;;11.12;37.33;102161.47;15739315;28;20090;-62
2021/04/15 14:52:15;;;;;;;1999.90;999.90;;;;;;;11.01;36.69;102154.34;15741388;28;20036;-60
2021/04/15 14:59:59;;;;;;;1999.90;999.90;;;;;;;10.45;36.88;102143.94;15737962;28;20044;-60
2021/04/15 15:07:33;;;;;;;1999.90;999.90;;;;;;;10.48;38.14;102141.38;15736583;28;20048;-54
2021/04/15 15:15:08;;;;;;;1999.90;999.90;;;;;;;10.58;38.53;102148.78;15673681;28;20043;-61
2021/04/15 15:22:43;;;;;;;1999.90;999.90;;;;;;;10.12;36.57;102138.16;15738747;28;20068;-59
2021/04/15 15:30:28;;;;;;;1999.90;999.90;;;;;;;10.42;37.28;102142.59;15739333;28;20102;-59
2021/04/15 15:38:01;;;;;;;1999.90;999.90;;;;;;;9.89;37.79;102138.94;15737191;28;20052;-57
2021/04/15 15:45:40;;;;;;;1999.90;999.90;;;;;;;10.35;37.09;102126.19;15737837;28;20114;-58
2021/04/15 15:53:28;;;;;;;1999.90;999.90;;;;;;;10.26;38.63;102144.72;15736149;28;20079;-60
2021/04/15 16:01:10;;;;;;;1999.90;999.90;;;;;;;10.18;38.31;102138.91;15735805;28;20036;-57
2021/04/15 16:08:45;;;;;;;1999.90;999.90;;;;;;;9.93;38.92;102126.09;15735496;28;20500;-60
2021/04/15 16:16:19;;;;;;;1999.90;999.90;;;;;;;9.49;39.40;102121.47;15736179;28;20496;-58
2021/04/15 16:24:17;;;;;;;1999.90;999.90;;;;;;;9.61;38.17;102121.94;15735837;28;20044;-58
2021/04/15 16:31:49;;;;;;;1999.90;999.90;;;;;;;9.62;39.18;102134.72;15735679;28;20055;-59
2021/04/15 16:39:23;;;;;;;1999.90;999.90;;;;;;;9.82;38.91;102134.53;15736012;28;20040;-58
2021/04/15 16:46:56;;;;;;;1999.90;999.90;;;;;;;9.74;39.47;102137.13;15734209;28;20461;-58
2021/04/15 16:54:28;;;;;;;1999.90;999.90;;;;;;;9.43;38.38;102142.13;15734161;28;20049;-57
2021/04/15 17:02:00;;;;;;;1999.90;999.90;;;;;;;9.44;39.84;102136.28;15732243;28;20079;-52
2021/04/15 17:09:33;;;;;;;1999.90;999.90;;;;;;;9.36;40.63;102152.78;15737811;28;20083;-53
2021/04/15 17:17:07;;;;;;;1999.90;999.90;;;;;;;8.74;42.31;102155.09;15730258;28;20055;-60
2021/04/15 17:24:40;;;;;;;1999.90;999.90;;;;;;;8.43;43.18;102148.00;15731578;28;20098;-63
2021/04/15 17:32:12;;;;;;;1999.90;999.90;;;;;;;8.27;43.43;102180.59;15715343;28;20040;-62
2021/04/15 17:39:45;;;;;;;1999.90;999.90;;;;;;;7.75;48.26;102193.72;15734879;28;20587;-59
2021/04/15 17:47:17;;;;;;;1999.90;999.90;;;;;;;6.93;49.53;102203.88;15734396;28;20045;-58
2021/04/15 17:54:49;;;;;;;1999.90;999.90;;;;;;;7.18;49.17;102199.47;15732267;28;20071;-59
2021/04/15 18:02:21;;;;;;;1999.90;999.90;;;;;;;7.71;48.52;102216.75;15734763;28;20113;-60
2021/04/15 18:09:53;;;;;;;1999.90;999.90;;;;;;;6.78;48.33;102205.75;15731727;28;20064;-61
2021/04/15 18:17:24;;;;;;;1999.90;999.90;;;;;;;6.87;50.55;102240.19;15731594;28;20044;-63
2021/04/15 18:24:57;;;;;;;1999.90;999.90;;;;;;;6.82;54.41;102243.78;15714168;28;20575;-62
2021/04/15 18:32:28;;;;;;;1999.90;999.90;;;;;;;6.03;60.08;102264.09;15731514;28;20047;-62
2021/04/15 18:40:01;;;;;;;1999.90;999.90;;;;;;;5.74;63.61;102262.72;15734969;28;20048;-61
2021/04/15 18:47:32;;;;;;;1999.90;999.90;;;;;;;5.43;66.70;102250.50;15721511;28;20087;-63
2021/04/15 18:55:06;;;;;;;1999.90;999.90;;;;;;;5.79;66.09;102246.13;15744956;28;20072;-62
2021/04/15 19:02:39;;;;;;;1999.90;999.90;;;;;;;5.84;66.49;102234.28;15744176;28;20093;-63
2021/04/15 19:10:13;;;;;;;1999.90;999.90;;;;;;;5.93;66.15;102229.91;15742975;28;20393;-62
2021/04/15 19:17:45;;;;;;;1999.90;999.90;;;;;;;5.58;66.93;102231.25;15724548;28;20118;-61
2021/04/15 19:25:17;;;;;;;1999.90;999.90;;;;;;;6.08;64.95;102233.66;15755677;22;20045;-62
2021/04/15 19:32:50;;;;;;;1999.90;999.90;;;;;;;5.56;66.74;102227.94;15746741;28;20407;-62
2021/04/15 19:40:26;;;;;;;1999.90;999.90;;;;;;;5.80;67.33;102223.69;15746670;28;20052;-63
2021/04/15 19:47:58;;;;;;;1999.90;999.90;;;;;;;5.46;68.01;102223.13;15746197;28;20673;-64
2021/04/15 19:55:30;;;;;;;1999.90;999.90;;;;;;;5.64;67.79;102210.00;15744415;28;20041;-62
2021/04/15 20:03:03;;;;;;;1999.90;999.90;;;;;;;6.07;65.87;102201.50;15726970;28;20040;-62
2021/04/15 20:10:38;;;;;;;1999.90;999.90;;;;;;;5.86;67.02;102207.13;15744043;28;20048;-61
2021/04/15 20:18:11;;;;;;;1999.90;999.90;;;;;;;5.87;67.14;102192.19;15743340;28;20070;-62
2021/04/15 20:25:44;;;;;;;1999.90;999.90;;;;;;;5.87;67.39;102190.22;15744264;28;20082;-61
2021/04/15 20:33:17;;;;;;;1999.90;999.90;;;;;;;5.90;68.00;102178.66;15743236;28;20048;-62
2021/04/15 20:40:51;;;;;;;;;;;;;;;5.84;68.43;102171.38;15741894;28;20041;-62
2021/04/15 20:48:24;;;;;;;1999.90;999.90;;;;;;;5.78;68.85;102164.13;15741360;28;19951;-62
2021/04/15 20:55:58;;;;;;;1999.90;999.90;;;;;;;5.73;68.51;102164.06;15740347;28;20059;-60
2021/04/15 21:03:31;;;;;;;1999.90;999.90;;;;;;;5.69;70.13;102149.09;15741762;28;20382;-61
2021/04/15 21:11:04;;;;;;;1999.90;999.90;;;;;;;5.90;69.04;102136.22;15740010;28;20052;-62
2021/04/15 21:18:36;;;;;;;1999.90;999.90;;;;;;;5.71;69.11;102128.34;15740759;28;20066;-61
2021/04/15 21:26:10;;;;;;;1999.90;999.90;;;;;;;5.57;70.31;102112.44;15741439;28;20040;-60
2021/04/15 21:33:42;;;;;;;1999.90;999.90;;;;;;;5.99;68.99;102106.94;15740859;28;20123;-59
2021/04/15 21:41:14;;;;;;;1999.90;999.90;;;;;;;5.93;68.21;102094.97;15739436;28;20092;-59
2021/04/15 21:48:46;;;;;;;1999.90;999.90;;;;;;;5.94;68.29;102088.38;15738999;28;20123;-60
2021/04/15 21:56:18;;;;;;;1999.90;999.90;;;;;;;6.06;68.84;102091.75;15738694;28;20115;-62
2021/04/15 22:03:50;;;;;;;1999.90;999.90;;;;;;;6.17;68.70;102084.31;15721651;28;20053;-61
2021/04/15 22:11:25;;;;;;;1999.90;999.90;;;;;;;5.94;69.86;102090.28;15737637;28;20044;-62
2021/04/15 22:18:59;;;;;;;1999.90;999.90;;;;;;;5.80;69.72;102085.19;15737993;28;20500;-62
2021/04/15 22:26:31;;;;;;;1999.90;999.90;;;;;;;6.24;68.36;102084.03;15750030;28;20049;-61
2021/04/15 22:34:04;;;;;;;1999.90;999.90;;;;;;;6.27;67.56;102075.22;15732108;28;20045;-61
2021/04/15 22:41:37;;;;;;;1999.90;999.90;;;;;;;6.05;68.54;102073.44;15731685;28;20173;-61
2021/04/15 22:49:09;;;;;;;1999.90;999.90;;;;;;;6.31;67.42;102060.53;15748634;28;20377;-61
2021/04/15 22:56:41;;;;;;;1999.90;999.90;;;;;;;6.18;66.74;102060.19;15748277;28;20048;-60
2021/04/15 23:04:13;;;;;;;1999.90;999.90;;;;;;;6.22;67.77;102053.81;15748270;28;20040;-61
2021/04/15 23:11:45;;;;;;;1999.90;999.90;;;;;;;6.24;67.13;102057.16;15729461;28;20052;-61
2021/04/15 23:19:17;;;;;;;1999.90;999.90;;;;;;;6.35;66.60;102053.31;15744310;28;20048;-60
2021/04/15 23:26:49;;;;;;;1999.90;999.90;;;;;;;6.36;66.66;102045.84;15728738;28;20424;-60
2021/04/15 23:34:21;;;;;;;1999.90;999.90;;;;;;;6.30;66.36;102036.69;15745594;28;20110;-61
2021/04/15 23:41:53;;;;;;;1999.90;999.90;;;;;;;6.50;65.17;102030.34;15746041;28;20055;-61
2021/04/15 23:49:24;;;;;;;1999.90;999.90;;;;;;;6.50;65.26;102008.16;15745709;28;20047;-61
2021/04/15 23:56:57;;;;;;;1999.90;999.90;;;;;;;6.30;64.98;102003.41;15751306;28;20044;-59
